Time;durP1;ratioP1;P1;durP2;ratioP2;P2;SDS_P1;SDS_P2;PMS_P1;PMS_P2;Temp;Humidity;BMP_temperature;BMP_pressure;BME280_temperature;BME280_humidity;BME280_pressure;Samples;Min_cycle;Max_cycle;Signal;HPM_P1;HPM_P2
2021/04/25 00:00:05;;;;;;;0.20;0.20;;;;;;;2.83;51.63;101529.09;5073780;28;20200;-71
2021/04/25 00:02:33;;;;;;;0.50;0.20;;;;;;;2.88;52.61;101556.41;5086093;28;20227;-73
2021/04/25 00:05:00;;;;;;;0.63;0.30;;;;;;;2.83;52.96;101553.84;5091519;28;20438;-71
2021/04/25 00:07:28;;;;;;;0.30;0.30;;;;;;;2.79;52.40;101553.06;5087588;28;20196;-73
2021/04/25 00:09:55;;;;;;;0.60;0.60;;;;;;;2.85;51.69;101548.50;5081772;28;20295;-73
2021/04/25 00:12:22;;;;;;;1.30;0.90;;;;;;;2.90;51.76;101549.28;5089910;28;20236;-72
2021/04/25 00:14:49;;;;;;;0.33;0.13;;;;;;;2.94;52.17;101550.94;5083979;28;20192;-73
2021/04/25 00:17:17;;;;;;;0.40;0.37;;;;;;;2.94;51.90;101546.50;5087767;28;20232;-72
2021/04/25 00:19:45;;;;;;;0.17;0.10;;;;;;;2.96;51.10;101546.47;5077412;28;20751;-72
2021/04/25 00:22:12;;;;;;;0.70;0.40;;;;;;;2.91;51.79;101543.06;5076497;28;20659;-72
2021/04/25 00:24:39;;;;;;;0.37;0.33;;;;;;;2.61;52.08;101502.19;5086838;28;20295;-72
2021/04/25 00:27:06;;;;;;;0.23;0.23;;;;;;;2.85;51.47;101545.84;5084614;28;20287;-71
2021/04/25 00:29:34;;;;;;;0.60;0.23;;;;;;;2.83;51.15;101540.59;5092274;28;20210;-71
2021/04/25 00:32:01;;;;;;;0.40;0.40;;;;;;;2.83;50.77;101537.06;5080044;28;20208;-71
2021/04/25 00:34:29;;;;;;;0.30;0.30;;;;;;;2.75;51.38;101518.66;5081391;28;20689;-72
2021/04/25 00:36:57;;;;;;;0.20;0.20;;;;;;;2.66;51.39;101525.06;5090605;28;20736;-71
2021/04/25 00:39:24;;;;;;;1.60;0.40;;;;;;;2.55;52.09;101532.38;5090126;28;20207;-71
2021/04/25 00:41:51;;;;;;;0.20;0.20;;;;;;;2.00;51.94;101438.19;5089241;28;20192;-72
2021/04/25 00:44:18;;;;;;;1.37;0.40;;;;;;;2.51;51.46;101538.66;5088859;28;20296;-78
2021/04/25 00:46:45;;;;;;;1.03;0.30;;;;;;;2.34;51.77;101514.28;5089278;28;20200;-78
2021/04/25 00:49:13;;;;;;;0.50;0.40;;;;;;;2.48;52.15;101546.69;5078158;28;20203;-78
2021/04/25 00:51:42;;;;;;;0.33;0.33;;;;;;;2.30;52.45;101536.47;5087940;28;20298;-71
2021/04/25 00:54:10;;;;;;;0.57;0.40;;;;;;;2.36;52.25;101531.03;5085540;28;20195;-71
2021/04/25 00:56:37;;;;;;;0.23;0.20;;;;;;;2.43;52.85;101554.69;5076885;28;20290;-71
2021/04/25 00:59:05;;;;;;;0.77;0.23;;;;;;;2.42;53.37;101557.38;5086424;28;20234;-72
2021/04/25 01:01:32;;;;;;;0.20;0.20;;;;;;;2.44;53.13;101553.78;5078283;28;20827;-78
2021/04/25 01:03:59;;;;;;;0.37;0.33;;;;;;;2.48;53.46;101554.63;5079207;28;20208;-71
2021/04/25 01:06:26;;;;;;;1.70;0.40;;;;;;;2.52;53.26;101556.31;5082301;28;20203;-71
2021/04/25 01:08:55;;;;;;;0.30;0.30;;;;;;;2.49;53.29;101557.25;5083075;28;20200;-72
2021/04/25 01:11:22;;;;;;;0.10;0.10;;;;;;;2.26;53.75;101517.09;5074816;28;20260;-78
2021/04/25 01:13:50;;;;;;;0.20;0.20;;;;;;;2.54;53.41;101551.84;5086117;28;20199;-78
2021/04/25 01:16:19;;;;;;;0.30;0.30;;;;;;;2.30;53.82;101521.44;5077732;28;20200;-78
2021/04/25 01:18:47;;;;;;;0.17;0.17;;;;;;;2.45;53.79;101547.63;5080057;28;20220;-78
2021/04/25 01:21:15;;;;;;;0.20;0.20;;;;;;;2.45;53.57;101552.06;5081213;28;20291;-78
2021/04/25 01:23:42;;;;;;;0.47;0.47;;;;;;;2.45;53.92;101550.28;5071722;28;20659;-72
2021/04/25 01:26:09;;;;;;;1999.90;955.63;;;;;;;2.41;53.87;101558.28;5080476;28;20312;-79
2021/04/25 01:28:37;;;;;;;21.77;11.87;;;;;;;2.37;54.83;101549.53;5084673;28;20204;-72
2021/04/25 01:31:05;;;;;;;4.53;1.07;;;;;;;2.40;55.08;101561.84;5078628;28;20292;-79
2021/04/25 01:33:34;;;;;;;0.70;0.70;;;;;;;2.37;55.38;101561.91;5086272;28;20200;-72
2021/04/25 01:36:02;;;;;;;0.83;0.60;;;;;;;2.40;54.78;101557.41;5088371;28;20196;-78
2021/04/25 01:38:30;;;;;;;0.70;0.70;;;;;;;2.34;55.37;101539.00;5084018;28;20635;-72
2021/04/25 01:40:57;;;;;;;1.27;0.57;;;;;;;2.50;55.39;101555.47;5079088;28;20204;-72
2021/04/25 01:43:24;;;;;;;0.63;0.43;;;;;;;2.20;55.10;101513.72;5086102;28;20276;-72
2021/04/25 01:45:52;;;;;;;0.97;0.37;;;;;;;2.45;56.14;101549.41;5088376;28;20218;-72
2021/04/25 01:48:19;;;;;;;2.83;0.50;;;;;;;2.43;55.22;101559.13;5088435;28;20287;-72
2021/04/25 01:50:47;;;;;;;0.70;0.70;;;;;;;2.38;55.34;101555.72;5087964;28;20291;-79
2021/04/25 01:53:14;;;;;;;1.57;1.27;;;;;;;2.36;55.51;101562.81;5081936;28;20211;-80
2021/04/25 01:55:43;;;;;;;90.87;36.80;;;;;;;2.34;55.32;101560.19;5079594;28;20192;-78
2021/04/25 01:58:11;;;;;;;0.43;0.40;;;;;;;2.37;55.10;101561.91;5080350;28;20203;-78
2021/04/25 02:00:40;;;;;;;2.40;1.87;;;;;;;2.34;54.63;101543.44;5077674;28;20200;-78
2021/04/25 02:03:08;;;;;;;6.17;3.73;;;;;;;2.37;54.51;101562.78;5076550;28;20208;-78
2021/04/25 02:05:36;;;;;;;1.50;1.40;;;;;;;2.29;54.86;101553.25;5088485;28;20337;-72
2021/04/25 02:08:05;;;;;;;0.87;0.60;;;;;;;2.15;55.23;101551.78;5084038;28;20203;-79
2021/04/25 02:10:32;;;;;;;0.60;0.30;;;;;;;2.26;54.89;101555.97;5089390;28;20194;-78
2021/04/25 02:13:01;;;;;;;0.30;0.30;;;;;;;2.20;54.95;101562.28;5069972;28;20648;-72
2021/04/25 02:15:28;;;;;;;0.33;0.33;;;;;;;2.13;54.99;101561.50;5082935;28;20567;-72
2021/04/25 02:17:55;;;;;;;0.03;0.03;;;;;;;2.13;54.89;101560.63;5077674;28;20727;-72
2021/04/25 02:20:24;;;;;;;0.47;0.47;;;;;;;1.94;55.92;101554.84;5074628;28;20636;-72
2021/04/25 02:22:52;;;;;;;0.10;0.10;;;;;;;1.79;55.62;101550.69;5079117;28;20199;-72
2021/04/25 02:25:21;;;;;;;0.37;0.37;;;;;;;1.85;55.91;101557.66;5077704;28;20222;-78
2021/04/25 02:27:48;;;;;;;0.37;0.30;;;;;;;1.80;55.69;101562.16;5077770;28;20589;-78
2021/04/25 02:30:19;;;;;;;0.20;0.20;;;;;;;1.78;56.09;101564.81;5069794;28;20219;-78
2021/04/25 02:32:48;;;;;;;0.43;0.43;;;;;;;1.72;56.23;101564.94;5083689;28;20199;-78
2021/04/25 02:35:17;;;;;;;0.20;0.20;;;;;;;1.70;56.04;101568.53;5076581;28;20685;-78
2021/04/25 02:37:44;;;;;;;0.13;0.13;;;;;;;1.39;56.35;101533.78;5081201;28;20284;-79
2021/04/25 02:40:16;;;;;;;0.20;0.13;;;;;;;1.58;56.48;101566.09;5080523;28;20290;-78
2021/04/25 02:42:43;;;;;;;0.27;0.27;;;;;;;1.44;56.45;101537.22;5081209;28;20209;-78
2021/04/25 02:45:15;;;;;;;0.10;0.10;;;;;;;1.59;55.99;101559.91;5086695;28;20251;-78
2021/04/25 02:47:45;;;;;;;0.00;0.00;;;;;;;1.61;55.98;101566.06;5084297;28;20698;-77
2021/04/25 02:50:13;;;;;;;0.23;0.23;;;;;;;1.62;55.74;101573.09;5078550;28;20282;-79
2021/04/25 02:52:40;;;;;;;1.27;0.10;;;;;;;1.52;55.95;101567.94;5082053;28;20490;-72
2021/04/25 02:55:09;;;;;;;0.20;0.20;;;;;;;1.54;55.92;101566.16;5079376;28;20245;-72
2021/04/25 02:57:38;;;;;;;0.33;0.30;;;;;;;1.37;55.89;101544.41;5078584;28;20252;-72
2021/04/25 03:00:08;;;;;;;0.23;0.23;;;;;;;1.56;55.59;101568.78;5085216;28;20238;-79
2021/04/25 03:02:36;;;;;;;0.30;0.10;;;;;;;1.54;55.62;101570.59;5087122;28;20202;-79
2021/04/25 03:05:06;;;;;;;1.23;0.23;;;;;;;1.35;55.35;101537.38;5085772;28;20428;-78
2021/04/25 03:07:33;;;;;;;0.40;0.40;;;;;;;1.58;55.22;101572.28;5081700;28;20244;-79
2021/04/25 03:10:00;;;;;;;0.20;0.20;;;;;;;1.58;54.81;101574.06;5085960;28;20276;-72
2021/04/25 03:12:28;;;;;;;0.37;0.30;;;;;;;1.55;54.99;101578.50;5083569;28;20234;-78
2021/04/25 03:14:55;;;;;;;0.40;0.40;;;;;;;1.55;54.92;101565.25;5079086;28;20283;-72
2021/04/25 03:17:22;;;;;;;0.73;0.20;;;;;;;1.45;54.56;101555.72;5078965;28;20634;-78
2021/04/25 03:19:50;;;;;;;0.10;0.10;;;;;;;1.60;54.97;101575.75;5072124;28;20208;-72
2021/04/25 03:22:18;;;;;;;1.90;0.37;;;;;;;1.66;54.43;101575.66;5072860;28;20203;-72
2021/04/25 03:24:45;;;;;;;0.20;0.20;;;;;;;1.62;54.56;101573.09;5081088;28;20228;-80
2021/04/25 03:27:12;;;;;;;0.10;0.10;;;;;;;1.51;54.53;101571.47;5081517;28;20648;-73
2021/04/25 03:29:40;;;;;;;0.20;0.20;;;;;;;1.52;54.69;101573.22;5081721;28;20728;-72
2021/04/25 03:32:07;;;;;;;0.23;0.20;;;;;;;1.52;54.65;101561.78;5077791;28;20563;-80
2021/04/25 03:34:34;;;;;;;0.30;0.20;;;;;;;1.49;54.45;101560.06;5081937;28;20199;-72
2021/04/25 03:37:02;;;;;;;0.50;0.30;;;;;;;1.29;54.52;101538.38;5085847;28;20290;-72
2021/04/25 03:39:30;;;;;;;1.23;0.20;;;;;;;1.58;54.41;101572.28;5089949;28;20291;-73
2021/04/25 03:41:57;;;;;;;0.10;0.10;;;;;;;1.52;54.07;101567.94;5080165;28;20655;-71
2021/04/25 03:44:24;;;;;;;0.60;0.47;;;;;;;1.62;54.15;101581.03;5079038;28;20223;-71
2021/04/25 03:46:51;;;;;;;3.60;0.20;;;;;;;1.53;54.39;101575.00;5088616;28;20211;-71
2021/04/25 03:49:21;;;;;;;1.90;0.30;;;;;;;1.50;54.40;101566.22;5079709;28;20654;-72
2021/04/25 03:51:48;;;;;;;1.13;0.20;;;;;;;1.61;54.13;101581.94;5070916;28;20249;-72
2021/04/25 03:54:15;;;;;;;0.20;0.20;;;;;;;1.55;54.07;101578.50;5081862;28;20460;-72
2021/04/25 03:56:44;;;;;;;0.30;0.30;;;;;;;1.58;54.20;101582.00;5081128;28;20192;-72
2021/04/25 03:59:11;;;;;;;0.30;0.30;;;;;;;1.60;54.00;101582.84;5074791;28;20214;-71
2021/04/25 04:01:38;;;;;;;0.27;0.20;;;;;;;1.52;54.13;101570.59;5078191;28;20282;-72
2021/04/25 04:04:06;;;;;;;0.33;0.33;;;;;;;1.57;53.85;101567.00;5081863;28;20212;-72
2021/04/25 04:06:33;;;;;;;0.20;0.20;;;;;;;1.55;54.09;101562.63;5072787;28;20310;-72
2021/04/25 04:09:00;;;;;;;0.57;0.57;;;;;;;1.73;54.20;101587.00;5088208;28;20202;-72
2021/04/25 04:11:27;;;;;;;0.20;0.20;;;;;;;1.74;53.88;101580.81;5085275;28;20325;-72
2021/04/25 04:13:55;;;;;;;0.43;0.40;;;;;;;1.85;53.59;101595.63;5084404;28;20207;-72
2021/04/25 04:16:23;;;;;;;0.23;0.23;;;;;;;1.90;53.96;101587.59;5075792;28;20192;-71
2021/04/25 04:18:50;;;;;;;0.13;0.13;;;;;;;1.86;53.44;101591.19;5087032;28;20222;-72
2021/04/25 04:21:17;;;;;;;0.40;0.30;;;;;;;1.75;53.40;101561.38;5074880;28;20300;-72
2021/04/25 04:23:44;;;;;;;0.17;0.17;;;;;;;2.02;53.54;101597.94;5088345;28;20226;-71
2021/04/25 04:26:13;;;;;;;0.60;0.30;;;;;;;2.07;53.49;101590.78;5083673;28;20219;-72
2021/04/25 04:28:40;;;;;;;0.50;0.50;;;;;;;1.86;53.27;101538.22;5085772;28;20634;-72
2021/04/25 04:31:08;;;;;;;0.27;0.27;;;;;;;2.23;53.17;101582.53;5081501;28;20665;-72
2021/04/25 04:33:36;;;;;;;0.00;0.00;;;;;;;2.41;52.83;101590.97;5091028;28;20286;-73
2021/04/25 04:36:05;;;;;;;0.17;0.17;;;;;;;2.47;52.12;101587.34;5085133;28;20291;-73
2021/04/25 04:38:32;;;;;;;0.10;0.10;;;;;;;2.47;52.06;101598.81;5083661;28;20203;-72
2021/04/25 04:40:59;;;;;;;0.10;0.10;;;;;;;2.60;52.17;101594.13;5086329;28;20433;-78
2021/04/25 04:43:27;;;;;;;1.63;0.23;;;;;;;2.59;52.05;101587.06;5083645;28;20292;-73
2021/04/25 04:45:54;;;;;;;0.40;0.20;;;;;;;2.80;52.01;101586.63;5084011;28;20698;-78
2021/04/25 04:48:23;;;;;;;0.10;0.10;;;;;;;2.98;51.95;101595.06;5084827;28;20592;-77
2021/04/25 04:50:50;;;;;;;0.60;0.27;;;;;;;3.19;51.67;101591.03;5080357;28;20873;-77
2021/04/25 04:53:17;;;;;;;0.30;0.27;;;;;;;3.26;51.18;101596.16;5083756;28;20302;-77
2021/04/25 04:55:45;;;;;;;0.37;0.37;;;;;;;3.30;49.95;101584.56;5079490;28;20192;-77
2021/04/25 04:58:12;;;;;;;1.13;0.10;;;;;;;3.56;50.61;101596.31;5084587;28;20193;-77
2021/04/25 05:00:39;;;;;;;1.10;0.23;;;;;;;3.77;49.67;101598.44;5084701;28;20227;-77
2021/04/25 05:03:06;;;;;;;0.40;0.40;;;;;;;3.96;49.73;101598.81;5075741;28;20667;-72
2021/04/25 05:05:34;;;;;;;0.20;0.20;;;;;;;4.04;48.08;101596.84;5079344;28;20232;-72
2021/04/25 05:08:01;;;;;;;0.47;0.13;;;;;;;4.15;48.84;101599.19;5089465;28;20611;-72
2021/04/25 05:10:29;;;;;;;0.10;0.10;;;;;;;4.20;48.88;101595.50;5085604;28;20655;-72
2021/04/25 05:12:56;;;;;;;0.40;0.40;;;;;;;4.42;48.41;101597.56;5088697;28;20226;-72
2021/04/25 05:15:23;;;;;;;0.27;0.23;;;;;;;4.59;48.33;101606.81;5080945;28;20652;-72
2021/04/25 05:17:50;;;;;;;1.60;0.40;;;;;;;4.05;47.79;101493.16;5082221;28;20763;-72
2021/04/25 05:20:18;;;;;;;0.20;0.20;;;;;;;4.64;47.50;101599.56;5082967;28;20189;-76
2021/04/25 05:22:46;;;;;;;0.20;0.20;;;;;;;4.76;47.06;101613.41;5088629;28;20611;-76
2021/04/25 05:25:13;;;;;;;0.37;0.30;;;;;;;4.90;46.84;101606.75;5090156;28;20217;-77
2021/04/25 05:27:40;;;;;;;1.17;0.27;;;;;;;5.09;47.33;101599.06;5086849;28;20781;-72
2021/04/25 05:30:08;;;;;;;0.10;0.10;;;;;;;5.17;47.11;101604.13;5076181;28;20974;-72
2021/04/25 05:32:36;;;;;;;0.20;0.20;;;;;;;5.34;45.66;101611.59;5077144;28;20285;-77
2021/04/25 05:35:03;;;;;;;0.93;0.40;;;;;;;5.30;45.35;101608.16;5081432;28;20223;-77
2021/04/25 05:37:30;;;;;;;0.30;0.30;;;;;;;5.30;45.78;101611.72;5087637;28;20193;-76
2021/04/25 05:39:58;;;;;;;0.87;0.50;;;;;;;5.54;45.74;101622.50;5083199;28;20544;-72
2021/04/25 05:42:26;;;;;;;0.30;0.30;;;;;;;5.67;45.32;101610.50;5087027;28;20215;-71
2021/04/25 05:44:54;;;;;;;0.40;0.40;;;;;;;5.92;45.60;101599.91;5078890;28;20626;-72
2021/04/25 05:47:21;;;;;;;0.13;0.13;;;;;;;6.04;46.13;101585.28;5082875;28;20207;-72
2021/04/25 05:49:49;;;;;;;2.37;0.20;;;;;;;6.36;44.50;101614.31;5079443;28;20653;-77
2021/04/25 05:52:16;;;;;;;0.17;0.17;;;;;;;6.44;44.63;101616.72;5074820;28;20278;-77
2021/04/25 05:54:43;;;;;;;0.20;0.20;;;;;;;6.27;44.48;101590.66;5076157;28;20225;-77
2021/04/25 05:57:11;;;;;;;0.57;0.13;;;;;;;6.60;44.68;101609.88;5083042;28;20244;-75
2021/04/25 05:59:39;;;;;;;0.43;0.17;;;;;;;6.64;43.45;101610.63;5083272;28;20587;-79
2021/04/25 06:02:07;;;;;;;0.50;0.30;;;;;;;6.64;43.89;101603.50;5087678;28;20260;-79
2021/04/25 06:04:34;;;;;;;0.77;0.30;;;;;;;6.89;43.90;101616.78;5083933;28;20265;-79
2021/04/25 06:07:02;;;;;;;0.20;0.20;;;;;;;7.04;42.55;101608.19;5084489;28;20277;-78
2021/04/25 06:09:38;;;;;;;1.70;0.10;;;;;;;7.03;43.24;101570.84;5103306;27;20518;-79
2021/04/25 06:12:05;;;;;;;0.30;0.20;;;;;;;7.43;42.86;101615.56;5101772;28;20202;-78
2021/04/25 06:14:33;;;;;;;0.33;0.33;;;;;;;7.28;42.33;101579.63;5092672;28;20205;-79
2021/04/25 06:17:00;;;;;;;4.00;0.57;;;;;;;7.67;42.71;101614.56;5102389;28;20196;-78
2021/04/25 06:19:27;;;;;;;0.40;0.40;;;;;;;7.68;41.54;101602.91;5109662;28;20215;-78
2021/04/25 06:21:54;;;;;;;0.20;0.20;;;;;;;7.79;41.22;101605.13;5109440;28;20251;-78
2021/04/25 06:24:22;;;;;;;0.20;0.20;;;;;;;7.94;42.56;101622.31;5100120;28;20203;-80
2021/04/25 06:26:50;;;;;;;0.23;0.23;;;;;;;8.27;40.92;101607.50;5110073;28;20731;-78
2021/04/25 06:29:17;;;;;;;0.20;0.20;;;;;;;8.09;40.98;101562.81;5099736;28;20213;-78
2021/04/25 06:31:44;;;;;;;1.00;0.23;;;;;;;8.26;41.22;101568.28;5106253;28;20226;-78
2021/04/25 06:34:11;;;;;;;0.30;0.30;;;;;;;8.42;40.06;101610.44;5099167;28;20190;-78
2021/04/25 06:36:41;;;;;;;0.20;0.20;;;;;;;8.40;39.38;101615.88;5097485;28;20290;-77
2021/04/25 06:39:09;;;;;;;0.43;0.30;;;;;;;8.52;40.19;101601.94;5124036;27;20733;-78
2021/04/25 06:41:37;;;;;;;0.33;0.33;;;;;;;8.54;39.13;101601.84;5096461;28;20206;-78
2021/04/25 06:44:06;;;;;;;0.20;0.20;;;;;;;8.81;40.85;101607.75;5098288;28;20295;-78
2021/04/25 06:46:33;;;;;;;0.20;0.20;;;;;;;8.83;39.53;101600.50;5097263;28;20524;-78
2021/04/25 06:49:00;;;;;;;0.27;0.20;;;;;;;9.00;40.04;101606.81;5099340;28;20742;-78
2021/04/25 06:51:28;;;;;;;0.60;0.40;;;;;;;8.62;39.46;101607.75;5094010;28;20683;-78
2021/04/25 06:53:55;;;;;;;0.50;0.40;;;;;;;8.19;39.37;101598.06;5098898;28;20200;-78
2021/04/25 06:56:23;;;;;;;0.23;0.23;;;;;;;7.93;40.32;101589.34;5092803;28;20206;-78
2021/04/25 06:58:50;;;;;;;0.20;0.20;;;;;;;8.38;40.63;101602.56;5091696;28;20685;-78
2021/04/25 07:01:18;;;;;;;0.87;0.33;;;;;;;8.56;39.13;101595.50;5096020;28;20203;-76
2021/04/25 07:03:48;;;;;;;0.30;0.27;;;;;;;8.37;38.36;101586.56;5091338;28;20283;-76
2021/04/25 07:06:17;;;;;;;1.33;0.50;;;;;;;7.92;39.83;101600.97;5096200;28;20298;-76
2021/04/25 07:08:45;;;;;;;0.10;0.10;;;;;;;7.55;40.39;101580.28;5096144;28;20226;-76
2021/04/25 07:11:12;;;;;;;1.60;0.27;;;;;;;7.96;40.25;101601.72;5094267;28;20201;-73
2021/04/25 07:13:40;;;;;;;0.13;0.13;;;;;;;8.03;40.87;101588.03;5088064;28;20199;-74
2021/04/25 07:16:07;;;;;;;2.13;0.40;;;;;;;7.45;38.76;101557.56;5092203;28;20206;-73
2021/04/25 07:18:35;;;;;;;0.43;0.30;;;;;;;8.00;40.51;101600.69;5094441;28;20207;-73
2021/04/25 07:21:03;;;;;;;0.53;0.20;;;;;;;8.50;39.83;101597.59;5084899;28;20199;-73
2021/04/25 07:23:30;;;;;;;0.20;0.10;;;;;;;8.74;37.94;101601.81;5087915;28;20251;-74
2021/04/25 07:26:18;;;;;;;0.20;0.20;;;;;;;8.21;38.56;101589.03;5079996;28;20207;-74
2021/04/25 07:28:45;;;;;;;1.27;0.30;;;;;;;8.27;39.40;101593.25;5117497;27;20346;-74
2021/04/25 07:31:12;;;;;;;0.37;0.17;;;;;;;7.93;39.01;101585.81;5080996;28;20676;-74
2021/04/25 07:33:40;;;;;;;0.30;0.30;;;;;;;8.53;38.53;101592.09;5080521;28;20208;-75
2021/04/25 07:36:09;;;;;;;0.30;0.30;;;;;;;8.46;38.61;101571.91;5079091;28;20667;-74
2021/04/25 07:38:38;;;;;;;0.20;0.20;;;;;;;8.58;38.67;101600.81;5081281;28;20231;-74
2021/04/25 07:41:05;;;;;;;0.30;0.30;;;;;;;8.74;38.72;101575.03;5084634;28;20210;-74
2021/04/25 07:43:33;;;;;;;0.20;0.20;;;;;;;9.26;38.37;101599.34;5088189;28;20690;-75
2021/04/25 07:46:00;;;;;;;0.50;0.20;;;;;;;9.44;37.79;101614.53;5081319;28;20206;-75
2021/04/25 07:48:27;;;;;;;1.53;0.17;;;;;;;8.91;36.79;101561.75;5072250;28;20311;-74
2021/04/25 07:50:58;;;;;;;4.87;0.43;;;;;;;8.92;37.26;101590.25;5078676;28;20226;-75
2021/04/25 07:53:25;;;;;;;0.10;0.10;;;;;;;9.17;37.87;101589.06;5078881;28;20703;-75
2021/04/25 07:55:52;;;;;;;0.30;0.30;;;;;;;9.01;37.40;101573.75;5083673;28;20217;-75
2021/04/25 07:58:20;;;;;;;0.50;0.50;;;;;;;9.20;37.89;101586.25;5079511;28;20909;-75
2021/04/25 08:00:47;;;;;;;1.70;0.30;;;;;;;9.60;37.99;101593.19;5081686;28;20250;-74
2021/04/25 08:03:14;;;;;;;1.10;0.20;;;;;;;9.75;37.47;101587.06;5079459;28;20255;-75
2021/04/25 08:05:41;;;;;;;0.93;0.30;;;;;;;9.61;37.21;101571.66;5078054;28;20208;-75
2021/04/25 08:08:10;;;;;;;0.20;0.17;;;;;;;9.79;36.46;101593.13;5084201;28;20249;-75
2021/04/25 08:10:37;;;;;;;0.30;0.30;;;;;;;9.70;34.63;101578.38;5078889;28;20214;-74
2021/04/25 08:13:04;;;;;;;0.20;0.17;;;;;;;9.87;35.20;101574.84;5108946;27;20202;-75
2021/04/25 08:15:31;;;;;;;0.43;0.30;;;;;;;9.75;36.78;101604.97;5077165;28;20203;-74
2021/04/25 08:18:00;;;;;;;0.20;0.20;;;;;;;9.44;35.73;101560.91;5081213;28;20651;-75
2021/04/25 08:20:28;;;;;;;0.30;0.30;;;;;;;8.94;36.11;101529.44;5113267;27;20274;-73
2021/04/25 08:22:55;;;;;;;0.63;0.10;;;;;;;9.19;37.60;101547.88;5086297;28;20199;-76
2021/04/25 08:25:23;;;;;;;0.40;0.40;;;;;;;9.70;37.52;101564.09;5082921;28;20207;-74
2021/04/25 08:27:51;;;;;;;0.40;0.40;;;;;;;9.67;36.12;101561.56;5079247;28;20592;-82
2021/04/25 08:30:18;;;;;;;0.20;0.20;;;;;;;9.84;36.48;101580.38;5081240;28;20746;-74
2021/04/25 08:32:46;;;;;;;0.10;0.10;;;;;;;10.13;35.67;101582.41;5084257;28;20282;-74
2021/04/25 08:35:13;;;;;;;0.63;0.30;;;;;;;10.38;35.23;101578.44;5083876;28;20204;-75
2021/04/25 08:37:40;;;;;;;0.20;0.20;;;;;;;10.34;35.00;101572.38;5077681;28;20279;-74
2021/04/25 08:40:08;;;;;;;0.27;0.10;;;;;;;10.78;35.25;101580.72;5081422;28;20209;-74
2021/04/25 08:42:40;;;;;;;0.37;0.37;;;;;;;10.44;34.44;101588.88;5081151;28;20637;-73
2021/04/25 08:45:07;;;;;;;0.30;0.30;;;;;;;9.66;35.39;101533.88;5080091;28;20572;-73
2021/04/25 08:47:55;;;;;;;0.53;0.17;;;;;;;9.82;36.29;101571.53;5080375;28;20551;-72
2021/04/25 08:50:23;;;;;;;2.00;0.50;;;;;;;9.42;35.07;101592.28;5078380;28;20220;-73
2021/04/25 08:52:51;;;;;;;3.30;0.40;;;;;;;9.09;35.56;101597.47;5081958;28;20200;-73
2021/04/25 08:55:19;;;;;;;0.70;0.20;;;;;;;8.89;36.94;101526.13;5082103;28;20208;-73
2021/04/25 08:57:47;;;;;;;1.50;0.50;;;;;;;9.44;35.14;101594.88;5077882;28;20204;-73
2021/04/25 09:00:15;;;;;;;0.63;0.30;;;;;;;9.15;35.79;101581.09;5078440;28;20185;-73
2021/04/25 09:02:43;;;;;;;0.67;0.30;;;;;;;9.87;36.38;101585.56;5081801;28;20659;-73
2021/04/25 09:05:12;;;;;;;3.60;0.37;;;;;;;9.84;34.93;101550.88;5071651;28;20650;-74
2021/04/25 09:07:52;;;;;;;1.03;0.30;;;;;;;10.19;35.15;101576.72;5075294;28;20336;-73
2021/04/25 09:10:25;;;;;;;0.13;0.10;;;;;;;10.16;34.17;101582.25;5075572;28;20200;-73
2021/04/25 09:12:53;;;;;;;0.20;0.20;;;;;;;10.18;34.90;101598.28;5082093;28;20229;-72
2021/04/25 09:15:25;;;;;;;0.20;0.20;;;;;;;10.10;34.57;101579.91;5076345;28;20211;-74
2021/04/25 09:17:54;;;;;;;0.30;0.30;;;;;;;10.44;35.89;101572.75;5081179;28;20192;-74
2021/04/25 09:20:32;;;;;;;0.00;0.00;;;;;;;10.55;33.56;101538.13;5079291;28;20204;-73
2021/04/25 09:23:00;;;;;;;1.13;0.40;;;;;;;10.60;34.19;101530.69;5083949;28;20254;-74
2021/04/25 09:25:28;;;;;;;0.30;0.30;;;;;;;10.45;34.52;101571.81;5077714;28;20199;-73
2021/04/25 09:28:14;;;;;;;2.23;0.13;;;;;;;10.25;34.21;101592.53;5081363;28;20191;-73
2021/04/25 09:30:55;;;;;;;0.93;0.37;;;;;;;10.04;33.54;101582.88;5084270;28;20204;-73
2021/04/25 09:33:26;;;;;;;0.00;0.00;;;;;;;9.53;34.08;101573.88;5080147;28;20192;-73
2021/04/25 09:35:54;;;;;;;0.30;0.30;;;;;;;9.13;34.47;101577.63;5079086;28;20219;-74
2021/04/25 09:38:21;;;;;;;1.50;0.30;;;;;;;9.52;34.29;101584.69;5081308;28;20282;-74
2021/04/25 09:40:50;;;;;;;0.20;0.20;;;;;;;9.28;34.35;101571.53;5075356;28;20306;-73
2021/04/25 09:43:19;;;;;;;0.20;0.20;;;;;;;9.74;36.86;101574.59;5083946;28;20685;-74
2021/04/25 09:45:49;;;;;;;1.80;0.17;;;;;;;9.93;34.86;101577.22;5084366;28;20211;-73
2021/04/25 09:48:27;;;;;;;0.20;0.20;;;;;;;9.46;34.58;101580.47;5077404;28;20208;-73
2021/04/25 09:51:16;;;;;;;0.10;0.10;;;;;;;9.52;34.44;101587.34;5079515;28;20199;-74
2021/04/25 09:53:58;;;;;;;0.17;0.17;;;;;;;9.03;34.34;101582.56;5081773;28;20215;-73
2021/04/25 09:56:36;;;;;;;0.10;0.10;;;;;;;9.07;34.97;101590.47;5076897;28;20251;-73
2021/04/25 09:59:06;;;;;;;0.53;0.47;;;;;;;9.09;35.38;101548.38;5086848;28;20285;-74
2021/04/25 10:01:36;;;;;;;0.20;0.20;;;;;;;9.48;35.90;101567.84;5086928;28;20196;-74
2021/04/25 10:04:06;;;;;;;0.20;0.20;;;;;;;10.06;34.93;101580.97;5073884;28;20567;-74
2021/04/25 10:06:51;;;;;;;0.30;0.27;;;;;;;9.88;34.47;101587.31;5076232;28;20199;-74
2021/04/25 10:09:20;;;;;;;0.27;0.20;;;;;;;9.45;34.10;101572.50;5084087;28;20235;-73
2021/04/25 10:11:48;;;;;;;0.20;0.20;;;;;;;9.57;34.09;101599.59;5078354;28;20208;-74
2021/04/25 10:14:16;;;;;;;0.30;0.30;;;;;;;9.35;33.33;101585.50;5079321;28;20252;-73
2021/04/25 10:16:44;;;;;;;0.20;0.20;;;;;;;9.64;33.81;101584.91;5084505;28;20577;-73
2021/04/25 10:19:12;;;;;;;0.10;0.10;;;;;;;10.05;33.54;101573.88;5078354;28;20191;-74
2021/04/25 10:21:40;;;;;;;0.30;0.30;;;;;;;10.07;33.07;101577.34;5081425;28;20269;-73
2021/04/25 10:24:09;;;;;;;0.37;0.20;;;;;;;9.98;33.69;101575.16;5079097;28;20689;-73
2021/04/25 10:26:41;;;;;;;0.20;0.20;;;;;;;9.69;34.03;101587.38;5084343;28;20653;-73
2021/04/25 10:29:12;;;;;;;0.00;0.00;;;;;;;9.63;33.62;101588.56;5077556;28;20219;-73
2021/04/25 10:31:40;;;;;;;0.40;0.40;;;;;;;9.40;33.56;101588.81;5077867;28;20210;-73
2021/04/25 10:34:19;;;;;;;0.00;0.00;;;;;;;9.21;33.41;101591.53;5078293;28;20281;-73
2021/04/25 10:37:07;;;;;;;0.10;0.10;;;;;;;9.52;34.74;101569.47;5087406;28;20958;-74
2021/04/25 10:39:36;;;;;;;0.07;0.07;;;;;;;9.34;33.56;101597.16;5075149;28;20220;-73
2021/04/25 10:42:26;;;;;;;0.40;0.20;;;;;;;9.05;33.52;101584.31;5075815;28;20208;-73
2021/04/25 10:45:16;;;;;;;0.30;0.30;;;;;;;8.68;33.93;101591.41;5071970;28;20200;-71
2021/04/25 10:47:47;;;;;;;0.10;0.10;;;;;;;8.84;34.33;101596.91;5069642;28;20218;-73
2021/04/25 10:50:43;;;;;;;1.60;0.10;;;;;;;8.59;33.33;101606.09;5075529;28;20651;-73
2021/04/25 10:53:17;;;;;;;0.30;0.30;;;;;;;8.57;34.18;101596.34;5072720;28;20204;-74
2021/04/25 10:55:47;;;;;;;0.17;0.17;;;;;;;8.16;33.24;101582.13;5076963;28;20718;-74
2021/04/25 10:58:21;;;;;;;0.23;0.23;;;;;;;8.24;33.95;101571.94;5075887;28;20326;-73
2021/04/25 11:00:49;;;;;;;0.20;0.20;;;;;;;8.41;34.05;101585.50;5074379;28;20258;-74
2021/04/25 11:03:44;;;;;;;0.20;0.07;;;;;;;8.64;34.65;101592.47;5083410;28;20749;-75
2021/04/25 11:06:26;;;;;;;0.23;0.23;;;;;;;8.39;34.32;101547.22;5093075;28;20523;-74
2021/04/25 11:08:53;;;;;;;1.53;0.30;;;;;;;8.68;34.99;101588.72;5075132;28;20231;-74
2021/04/25 11:11:34;;;;;;;0.30;0.30;;;;;;;8.84;34.30;101591.53;5076447;28;20693;-74
2021/04/25 11:14:04;;;;;;;0.20;0.20;;;;;;;8.63;34.17;101582.72;5074994;28;20223;-75
2021/04/25 11:16:33;;;;;;;0.57;0.23;;;;;;;8.59;34.51;101586.47;5072953;28;20743;-74
2021/04/25 11:19:04;;;;;;;0.67;0.27;;;;;;;8.62;34.72;101594.38;5095303;28;20709;-74
2021/04/25 11:21:41;;;;;;;0.30;0.30;;;;;;;8.10;34.46;101592.19;5081030;28;20200;-74
2021/04/25 11:24:37;;;;;;;0.23;0.23;;;;;;;8.29;34.96;101572.66;5072576;28;20199;-74
2021/04/25 11:27:10;;;;;;;0.23;0.23;;;;;;;8.52;34.26;101595.69;5073969;28;20757;-74
2021/04/25 11:30:02;;;;;;;0.17;0.17;;;;;;;8.25;34.15;101563.00;5081066;28;20694;-74
2021/04/25 11:32:39;;;;;;;0.33;0.33;;;;;;;8.51;34.57;101610.03;5082847;28;20212;-74
2021/04/25 11:35:13;;;;;;;0.30;0.30;;;;;;;8.05;34.86;101586.16;5083510;28;20201;-75
2021/04/25 11:37:42;;;;;;;0.10;0.10;;;;;;;8.09;35.07;101598.47;5077156;28;20720;-72
2021/04/25 11:40:12;;;;;;;0.20;0.20;;;;;;;8.33;34.36;101607.25;5081090;28;20208;-72